LPP3223 SVMI-TTPP
Flight info
| Callsign | LPP3223 |
|---|---|
| Flight time | 0h 54m |
| Altitude | 31000 |
| Route | OSMAR2 OSMAR W20 CBC A552 MEGIR DCT ANELU DCT LEXOR DCT TALUS |
| Aircraft | A21N/M-SDE3FGHIRWY/LB1 |
Departure
| Time | 2026-05-07 15:22 |
|---|---|
| Airport | Maiquetía Simón Bolívar International Airport (SVMI) |
Arrival
| Time | 2026-05-07 16:16 |
|---|---|
| Airport | Piarco International Airport (TTPP) |
| Time | Latitude | Longitude | Altitude | Speed | Heading |
|---|---|---|---|---|---|
| 2026-05-07 14:45 | 10.59843 | -66.99934 | 316 ft | 0 kts | 178° |
| 2026-05-07 15:11 | 10.59856 | -66.99934 | 319 ft | 2 kts | 178° |
| 2026-05-07 15:11 | 10.59871 | -66.99934 | 318 ft | 2 kts | 178° |
| 2026-05-07 15:12 | 10.59880 | -66.99934 | 318 ft | 2 kts | 178° |
| 2026-05-07 15:12 | 10.59895 | -66.99938 | 318 ft | 2 kts | 146° |
| 2026-05-07 15:12 | 10.59906 | -66.99949 | 318 ft | 2 kts | 121° |
| 2026-05-07 15:12 | 10.59911 | -66.99963 | 318 ft | 1 kts | 95° |
| 2026-05-07 15:13 | 10.59911 | -66.99970 | 319 ft | 1 kts | 85° |
| 2026-05-07 15:13 | 10.59911 | -66.99972 | 319 ft | 0 kts | 88° |
| 2026-05-07 15:14 | 10.59911 | -66.99959 | 318 ft | 4 kts | 88° |
| 2026-05-07 15:15 | 10.59938 | -66.99922 | 317 ft | 9 kts | 18° |
| 2026-05-07 15:15 | 10.60027 | -66.99919 | 314 ft | 15 kts | 359° |
| 2026-05-07 15:15 | 10.60133 | -66.99890 | 311 ft | 18 kts | 63° |
| 2026-05-07 15:15 | 10.60140 | -66.99754 | 306 ft | 21 kts | 92° |
| 2026-05-07 15:16 | 10.60053 | -66.99663 | 307 ft | 20 kts | 181° |
| 2026-05-07 15:16 | 10.59923 | -66.99663 | 311 ft | 15 kts | 163° |
| 2026-05-07 15:16 | 10.59909 | -66.99648 | 311 ft | 0 kts | 86° |
| 2026-05-07 15:21 | 10.59910 | -66.99632 | 312 ft | 14 kts | 86° |
| 2026-05-07 15:22 | 10.60009 | -66.99209 | 290 ft | 106 kts | 77° |
| 2026-05-07 15:22 | 10.60243 | -66.98231 | 279 ft | 173 kts | 78° |
| 2026-05-07 15:22 | 10.60531 | -66.97008 | 897 ft | 184 kts | 77° |
| 2026-05-07 15:22 | 10.61045 | -66.95842 | 1877 ft | 185 kts | 50° |
| 2026-05-07 15:23 | 10.62077 | -66.95110 | 2809 ft | 177 kts | 34° |
| 2026-05-07 15:23 | 10.62920 | -66.94235 | 3416 ft | 172 kts | 70° |
| 2026-05-07 15:23 | 10.63249 | -66.93040 | 3911 ft | 181 kts | 80° |
| 2026-05-07 15:23 | 10.63499 | -66.91729 | 4346 ft | 196 kts | 79° |
| 2026-05-07 15:24 | 10.63811 | -66.90314 | 4797 ft | 212 kts | 77° |
| 2026-05-07 15:24 | 10.64189 | -66.88783 | 5178 ft | 233 kts | 77° |
| 2026-05-07 15:24 | 10.64626 | -66.87100 | 5600 ft | 254 kts | 76° |
| 2026-05-07 15:24 | 10.65101 | -66.85318 | 6146 ft | 269 kts | 76° |
| 2026-05-07 15:25 | 10.65600 | -66.83474 | 6918 ft | 274 kts | 76° |
| 2026-05-07 15:25 | 10.66114 | -66.81587 | 7806 ft | 274 kts | 76° |
| 2026-05-07 15:25 | 10.66625 | -66.79715 | 8630 ft | 275 kts | 76° |
| 2026-05-07 15:25 | 10.67142 | -66.77820 | 9408 ft | 277 kts | 76° |
| 2026-05-07 15:26 | 10.67659 | -66.75915 | 10157 ft | 279 kts | 76° |
| 2026-05-07 15:26 | 10.68197 | -66.73933 | 10766 ft | 286 kts | 75° |
| 2026-05-07 15:26 | 10.68750 | -66.71901 | 11102 ft | 304 kts | 75° |
| 2026-05-07 15:26 | 10.69341 | -66.69734 | 11492 ft | 318 kts | 75° |
| 2026-05-07 15:27 | 10.69935 | -66.67561 | 12164 ft | 322 kts | 74° |
| 2026-05-07 15:27 | 10.70549 | -66.65311 | 12902 ft | 323 kts | 74° |
| 2026-05-07 15:27 | 10.71159 | -66.63079 | 13582 ft | 325 kts | 73° |
| 2026-05-07 15:27 | 10.71772 | -66.60838 | 14181 ft | 330 kts | 74° |
| 2026-05-07 15:28 | 10.72386 | -66.58559 | 14753 ft | 335 kts | 76° |
| 2026-05-07 15:28 | 10.72664 | -66.56163 | 15295 ft | 342 kts | 89° |
| 2026-05-07 15:28 | 10.72377 | -66.53735 | 15863 ft | 348 kts | 102° |
| 2026-05-07 15:28 | 10.71679 | -66.51302 | 16442 ft | 353 kts | 106° |
| 2026-05-07 15:29 | 10.70928 | -66.48909 | 16997 ft | 357 kts | 107° |
| 2026-05-07 15:29 | 10.70153 | -66.46458 | 17575 ft | 361 kts | 107° |
| 2026-05-07 15:29 | 10.69382 | -66.44007 | 18098 ft | 366 kts | 107° |
| 2026-05-07 15:29 | 10.68586 | -66.41460 | 18588 ft | 371 kts | 107° |
| 2026-05-07 15:30 | 10.67803 | -66.38940 | 19058 ft | 376 kts | 107° |
| 2026-05-07 15:30 | 10.66987 | -66.36307 | 19552 ft | 380 kts | 107° |
| 2026-05-07 15:30 | 10.66165 | -66.33649 | 20004 ft | 385 kts | 107° |
| 2026-05-07 15:30 | 10.65333 | -66.30942 | 20434 ft | 390 kts | 107° |
| 2026-05-07 15:31 | 10.64489 | -66.28194 | 20889 ft | 395 kts | 108° |
| 2026-05-07 15:31 | 10.63642 | -66.25446 | 21320 ft | 399 kts | 108° |
| 2026-05-07 15:31 | 10.62783 | -66.22669 | 21755 ft | 403 kts | 108° |
| 2026-05-07 15:31 | 10.61923 | -66.19886 | 22180 ft | 406 kts | 108° |
| 2026-05-07 15:32 | 10.61060 | -66.17087 | 22599 ft | 410 kts | 108° |
| 2026-05-07 15:32 | 10.60184 | -66.14254 | 23028 ft | 414 kts | 108° |
| 2026-05-07 15:32 | 10.59292 | -66.11373 | 23478 ft | 417 kts | 108° |
| 2026-05-07 15:32 | 10.58411 | -66.08517 | 23904 ft | 420 kts | 108° |
| 2026-05-07 15:33 | 10.57664 | -66.05572 | 24300 ft | 424 kts | 103° |
| 2026-05-07 15:33 | 10.57165 | -66.02589 | 24678 ft | 429 kts | 98° |
| 2026-05-07 15:33 | 10.56891 | -65.99517 | 25047 ft | 433 kts | 95° |
| 2026-05-07 15:33 | 10.56686 | -65.96411 | 25423 ft | 436 kts | 95° |
| 2026-05-07 15:34 | 10.56492 | -65.93276 | 25762 ft | 440 kts | 94° |
| 2026-05-07 15:34 | 10.56291 | -65.90094 | 26099 ft | 444 kts | 95° |
| 2026-05-07 15:34 | 10.56087 | -65.86906 | 26437 ft | 448 kts | 95° |
| 2026-05-07 15:34 | 10.55876 | -65.83662 | 26783 ft | 451 kts | 95° |
| 2026-05-07 15:35 | 10.55662 | -65.80418 | 27128 ft | 454 kts | 95° |
| 2026-05-07 15:35 | 10.55445 | -65.77144 | 27455 ft | 458 kts | 95° |
| 2026-05-07 15:35 | 10.55226 | -65.73859 | 27781 ft | 461 kts | 95° |
| 2026-05-07 15:35 | 10.55002 | -65.70516 | 28191 ft | 461 kts | 95° |
| 2026-05-07 15:36 | 10.54781 | -65.67228 | 28682 ft | 460 kts | 95° |
| 2026-05-07 15:36 | 10.54563 | -65.63966 | 29142 ft | 459 kts | 95° |
| 2026-05-07 15:36 | 10.54338 | -65.60634 | 29551 ft | 459 kts | 95° |
| 2026-05-07 15:36 | 10.54115 | -65.57321 | 29876 ft | 462 kts | 95° |
| 2026-05-07 15:37 | 10.53891 | -65.53998 | 30194 ft | 464 kts | 95° |
| 2026-05-07 15:37 | 10.53665 | -65.50642 | 30515 ft | 466 kts | 95° |
| 2026-05-07 15:37 | 10.53436 | -65.47244 | 30835 ft | 468 kts | 95° |
| 2026-05-07 15:37 | 10.53214 | -65.43950 | 30940 ft | 471 kts | 95° |
| 2026-05-07 15:38 | 10.52759 | -65.37170 | 30951 ft | 471 kts | 95° |
| 2026-05-07 15:38 | 10.52303 | -65.30362 | 30951 ft | 471 kts | 95° |
| 2026-05-07 15:39 | 10.51841 | -65.23534 | 30954 ft | 471 kts | 95° |
| 2026-05-07 15:39 | 10.51407 | -65.16818 | 30952 ft | 470 kts | 95° |
| 2026-05-07 15:40 | 10.50979 | -65.10065 | 30956 ft | 470 kts | 95° |
| 2026-05-07 15:40 | 10.50552 | -65.03323 | 30957 ft | 470 kts | 95° |
| 2026-05-07 15:41 | 10.50113 | -64.96593 | 30962 ft | 470 kts | 95° |
| 2026-05-07 15:41 | 10.49643 | -64.89911 | 30962 ft | 470 kts | 95° |
| 2026-05-07 15:42 | 10.49170 | -64.83120 | 30966 ft | 470 kts | 95° |
| 2026-05-07 15:42 | 10.48699 | -64.76296 | 30962 ft | 471 kts | 95° |
| 2026-05-07 15:43 | 10.48235 | -64.69525 | 30970 ft | 470 kts | 95° |
| 2026-05-07 15:43 | 10.47774 | -64.62789 | 30966 ft | 470 kts | 95° |
| 2026-05-07 15:44 | 10.47309 | -64.56069 | 30971 ft | 470 kts | 95° |
| 2026-05-07 15:44 | 10.46838 | -64.49283 | 30973 ft | 470 kts | 95° |
| 2026-05-07 15:45 | 10.46372 | -64.42425 | 30981 ft | 469 kts | 95° |
| 2026-05-07 15:45 | 10.45912 | -64.35613 | 30988 ft | 469 kts | 95° |
| 2026-05-07 15:46 | 10.45227 | -64.25394 | 31003 ft | 469 kts | 95° |
| 2026-05-07 15:47 | 10.44840 | -64.18619 | 31014 ft | 469 kts | 92° |
| 2026-05-07 15:47 | 10.45245 | -64.11790 | 31015 ft | 471 kts | 83° |
| 2026-05-07 15:48 | 10.46654 | -64.05074 | 31019 ft | 471 kts | 75° |
| 2026-05-07 15:48 | 10.48434 | -63.98420 | 31009 ft | 472 kts | 75° |
| 2026-05-07 15:49 | 10.50193 | -63.91788 | 30997 ft | 473 kts | 75° |
| 2026-05-07 15:49 | 10.51917 | -63.85189 | 30988 ft | 472 kts | 76° |
| 2026-05-07 15:50 | 10.53671 | -63.78452 | 30981 ft | 472 kts | 75° |
| 2026-05-07 15:50 | 10.55401 | -63.71803 | 30980 ft | 471 kts | 75° |
| 2026-05-07 15:51 | 10.56978 | -63.65113 | 30978 ft | 472 kts | 78° |
| 2026-05-07 15:51 | 10.58455 | -63.58421 | 30981 ft | 472 kts | 78° |
| 2026-05-07 15:52 | 10.59963 | -63.51679 | 30981 ft | 472 kts | 78° |
| 2026-05-07 15:52 | 10.61508 | -63.44829 | 30983 ft | 473 kts | 78° |
| 2026-05-07 15:53 | 10.63046 | -63.38020 | 30986 ft | 472 kts | 78° |
| 2026-05-07 15:53 | 10.63778 | -63.34775 | 30811 ft | 473 kts | 78° |
| 2026-05-07 15:53 | 10.64531 | -63.31423 | 29941 ft | 478 kts | 78° |
| 2026-05-07 15:53 | 10.65206 | -63.27992 | 28962 ft | 479 kts | 83° |
| 2026-05-07 15:54 | 10.65479 | -63.24564 | 28236 ft | 478 kts | 91° |
| 2026-05-07 15:54 | 10.65338 | -63.21150 | 27533 ft | 476 kts | 97° |
| 2026-05-07 15:54 | 10.65003 | -63.17703 | 27013 ft | 470 kts | 98° |
| 2026-05-07 15:54 | 10.64639 | -63.14331 | 26554 ft | 464 kts | 98° |
| 2026-05-07 15:55 | 10.64280 | -63.11005 | 26072 ft | 459 kts | 98° |
| 2026-05-07 15:55 | 10.63937 | -63.07766 | 25622 ft | 454 kts | 98° |
| 2026-05-07 15:55 | 10.63602 | -63.04523 | 25164 ft | 449 kts | 98° |
| 2026-05-07 15:55 | 10.63276 | -63.01324 | 24714 ft | 445 kts | 98° |
| 2026-05-07 15:56 | 10.62951 | -62.98125 | 24269 ft | 441 kts | 98° |
| 2026-05-07 15:56 | 10.62640 | -62.95043 | 23818 ft | 437 kts | 98° |
| 2026-05-07 15:56 | 10.62332 | -62.91977 | 23362 ft | 434 kts | 98° |
| 2026-05-07 15:56 | 10.62021 | -62.88900 | 22919 ft | 430 kts | 98° |
| 2026-05-07 15:57 | 10.61710 | -62.85817 | 22472 ft | 426 kts | 97° |
| 2026-05-07 15:57 | 10.61410 | -62.82843 | 22057 ft | 423 kts | 97° |
| 2026-05-07 15:57 | 10.61106 | -62.79834 | 21637 ft | 419 kts | 97° |
| 2026-05-07 15:57 | 10.60805 | -62.76860 | 21237 ft | 416 kts | 97° |
| 2026-05-07 15:58 | 10.60505 | -62.73896 | 20806 ft | 412 kts | 97° |
| 2026-05-07 15:58 | 10.60210 | -62.70972 | 20400 ft | 409 kts | 97° |
| 2026-05-07 15:58 | 10.59919 | -62.68113 | 20007 ft | 405 kts | 97° |
| 2026-05-07 15:58 | 10.59625 | -62.65220 | 19615 ft | 401 kts | 97° |
| 2026-05-07 15:59 | 10.59336 | -62.62365 | 19221 ft | 397 kts | 97° |
| 2026-05-07 15:59 | 10.59046 | -62.59512 | 18813 ft | 392 kts | 97° |
| 2026-05-07 15:59 | 10.58761 | -62.56706 | 18420 ft | 388 kts | 97° |
| 2026-05-07 15:59 | 10.58479 | -62.53936 | 18036 ft | 385 kts | 97° |
| 2026-05-07 16:00 | 10.58200 | -62.51196 | 17634 ft | 381 kts | 97° |
| 2026-05-07 16:00 | 10.57923 | -62.48486 | 17238 ft | 377 kts | 97° |
| 2026-05-07 16:00 | 10.57652 | -62.45836 | 16860 ft | 373 kts | 96° |
| 2026-05-07 16:00 | 10.57382 | -62.43222 | 16491 ft | 369 kts | 96° |
| 2026-05-07 16:01 | 10.57113 | -62.40603 | 16110 ft | 366 kts | 96° |
| 2026-05-07 16:01 | 10.56849 | -62.38018 | 15737 ft | 362 kts | 96° |
| 2026-05-07 16:01 | 10.56586 | -62.35453 | 15370 ft | 358 kts | 95° |
| 2026-05-07 16:01 | 10.56322 | -62.32877 | 14994 ft | 354 kts | 95° |
| 2026-05-07 16:02 | 10.56066 | -62.30361 | 14632 ft | 351 kts | 95° |
| 2026-05-07 16:02 | 10.55814 | -62.27897 | 14276 ft | 348 kts | 94° |
| 2026-05-07 16:02 | 10.55567 | -62.25479 | 13929 ft | 344 kts | 94° |
| 2026-05-07 16:02 | 10.55319 | -62.23056 | 13538 ft | 341 kts | 94° |
| 2026-05-07 16:03 | 10.55071 | -62.20647 | 13181 ft | 338 kts | 94° |
| 2026-05-07 16:03 | 10.54827 | -62.18261 | 12806 ft | 335 kts | 94° |
| 2026-05-07 16:03 | 10.54587 | -62.15897 | 12388 ft | 333 kts | 94° |
| 2026-05-07 16:03 | 10.54348 | -62.13548 | 11990 ft | 330 kts | 94° |
| 2026-05-07 16:04 | 10.54110 | -62.11221 | 11575 ft | 328 kts | 94° |
| 2026-05-07 16:04 | 10.53872 | -62.08907 | 11164 ft | 326 kts | 94° |
| 2026-05-07 16:04 | 10.53634 | -62.06593 | 10751 ft | 324 kts | 95° |
| 2026-05-07 16:04 | 10.53397 | -62.04284 | 10329 ft | 322 kts | 95° |
| 2026-05-07 16:05 | 10.53166 | -62.02043 | 10167 ft | 310 kts | 95° |
| 2026-05-07 16:05 | 10.52945 | -61.99906 | 10096 ft | 296 kts | 95° |
| 2026-05-07 16:05 | 10.52731 | -61.97837 | 10012 ft | 282 kts | 95° |
| 2026-05-07 16:05 | 10.52527 | -61.95849 | 9661 ft | 281 kts | 95° |
| 2026-05-07 16:06 | 10.52326 | -61.93886 | 9312 ft | 279 kts | 95° |
| 2026-05-07 16:06 | 10.52120 | -61.91902 | 8984 ft | 276 kts | 95° |
| 2026-05-07 16:06 | 10.51920 | -61.89975 | 8667 ft | 273 kts | 95° |
| 2026-05-07 16:06 | 10.51775 | -61.88047 | 8360 ft | 269 kts | 89° |
| 2026-05-07 16:07 | 10.51982 | -61.86168 | 8054 ft | 266 kts | 77° |
| 2026-05-07 16:07 | 10.52494 | -61.84343 | 7744 ft | 263 kts | 73° |
| 2026-05-07 16:07 | 10.53061 | -61.82553 | 7432 ft | 261 kts | 72° |
| 2026-05-07 16:07 | 10.53621 | -61.80804 | 7121 ft | 259 kts | 72° |
| 2026-05-07 16:08 | 10.54175 | -61.79066 | 6821 ft | 256 kts | 73° |
| 2026-05-07 16:08 | 10.54724 | -61.77335 | 6516 ft | 254 kts | 73° |
| 2026-05-07 16:08 | 10.55265 | -61.75619 | 6223 ft | 251 kts | 73° |
| 2026-05-07 16:08 | 10.55791 | -61.73946 | 5935 ft | 249 kts | 73° |
| 2026-05-07 16:09 | 10.56320 | -61.72263 | 5642 ft | 247 kts | 73° |
| 2026-05-07 16:09 | 10.56838 | -61.70609 | 5352 ft | 245 kts | 73° |
| 2026-05-07 16:09 | 10.57361 | -61.68940 | 5061 ft | 243 kts | 73° |
| 2026-05-07 16:09 | 10.57870 | -61.67314 | 4778 ft | 241 kts | 73° |
| 2026-05-07 16:10 | 10.58374 | -61.65703 | 4496 ft | 240 kts | 73° |
| 2026-05-07 16:10 | 10.58880 | -61.64085 | 4212 ft | 238 kts | 73° |
| 2026-05-07 16:10 | 10.59268 | -61.62457 | 3932 ft | 236 kts | 81° |
| 2026-05-07 16:10 | 10.59410 | -61.60785 | 3651 ft | 234 kts | 88° |
| 2026-05-07 16:11 | 10.59426 | -61.59143 | 3397 ft | 232 kts | 89° |
| 2026-05-07 16:11 | 10.59429 | -61.57509 | 3133 ft | 230 kts | 89° |
| 2026-05-07 16:11 | 10.59432 | -61.55887 | 2969 ft | 222 kts | 89° |
| 2026-05-07 16:11 | 10.59436 | -61.54315 | 2951 ft | 221 kts | 89° |
| 2026-05-07 16:12 | 10.59441 | -61.52768 | 2906 ft | 220 kts | 89° |
| 2026-05-07 16:12 | 10.59446 | -61.51221 | 2795 ft | 213 kts | 89° |
| 2026-05-07 16:12 | 10.59451 | -61.49762 | 2728 ft | 198 kts | 89° |
| 2026-05-07 16:12 | 10.59462 | -61.48421 | 2646 ft | 181 kts | 89° |
| 2026-05-07 16:13 | 10.59476 | -61.47162 | 2357 ft | 173 kts | 88° |
| 2026-05-07 16:13 | 10.59485 | -61.46001 | 2103 ft | 154 kts | 88° |
| 2026-05-07 16:13 | 10.59490 | -61.44968 | 1902 ft | 144 kts | 88° |
| 2026-05-07 16:13 | 10.59493 | -61.43952 | 1726 ft | 143 kts | 88° |
| 2026-05-07 16:14 | 10.59497 | -61.42945 | 1544 ft | 142 kts | 89° |
| 2026-05-07 16:14 | 10.59500 | -61.41935 | 1357 ft | 142 kts | 89° |
| 2026-05-07 16:14 | 10.59503 | -61.40927 | 1160 ft | 141 kts | 89° |
| 2026-05-07 16:14 | 10.59506 | -61.39923 | 976 ft | 141 kts | 89° |
| 2026-05-07 16:15 | 10.59508 | -61.38928 | 795 ft | 141 kts | 90° |
| 2026-05-07 16:15 | 10.59511 | -61.37934 | 609 ft | 140 kts | 90° |
| 2026-05-07 16:15 | 10.59518 | -61.36933 | 387 ft | 140 kts | 90° |
| 2026-05-07 16:15 | 10.59543 | -61.35949 | 211 ft | 140 kts | 91° |
| 2026-05-07 16:16 | 10.59542 | -61.34960 | 66 ft | 140 kts | 93° |
| 2026-05-07 16:16 | 10.59530 | -61.34123 | 72 ft | 93 kts | 90° |
| 2026-05-07 16:16 | 10.59532 | -61.33666 | 74 ft | 42 kts | 81° |
| 2026-05-07 16:16 | 10.59660 | -61.33446 | 75 ft | 22 kts | 7° |
| 2026-05-07 16:17 | 10.59700 | -61.33544 | 74 ft | 17 kts | 270° |
| 2026-05-07 16:17 | 10.59697 | -61.33672 | 72 ft | 18 kts | 269° |
| 2026-05-07 16:17 | 10.59793 | -61.33731 | 72 ft | 19 kts | 0° |
| 2026-05-07 16:17 | 10.59909 | -61.33777 | 73 ft | 18 kts | 307° |
| 2026-05-07 16:18 | 10.59938 | -61.33815 | 74 ft | 0 kts | 307° |